ADDS METAR Data INFO
IDs: Format: Raw Decoded Include TAF

Data at: 0506 UTC 23 May 2017

KCWC 230455Z AUTO 14003KT 10SM OVC035 18/16 A2996 RMK AO2 LTG DSNT E AND SE T01760162
KCWC 230435Z AUTO 02007G18KT 10SM OVC035 18/16 A2997 RMK AO2 LTG DSNT E T01760160
KCWC 230415Z AUTO 02007KT 10SM -RA BKN037 BKN070 OVC100 19/17 A2996 RMK AO2 LTG DSNT E T01850167
KCWC 230355Z AUTO 09013G23KT 040V100 7SM RA BKN035 BKN060 BKN075 20/16 A2994 RMK AO2 LTG DSNT ALQS P0001 T02010157
KCWC 230335Z AUTO 00000KT 10SM SCT044 SCT060 BKN080 21/17 A2995 RMK AO2 LTG DSNT NW THRU E T02130166
KCWC 230315Z AUTO 00000KT 10SM SCT080 BKN100 20/17 A2995 RMK AO2 LTG DSNT NE T02030170
KCWC 230255Z AUTO 14005KT 10SM SCT110 21/17 A2995 RMK AO2 LTG DSNT N AND NE T02080168
KCWC 230235Z AUTO 13005KT 10SM SCT038 SCT070 BKN110 21/17 A2993 RMK AO2 LTG DSNT NE T02120169
KCWC 230215Z AUTO 00000KT 10SM SCT038 OVC070 22/17 A2994 RMK AO2 LTG DSNT N T02160169
KCWC 230155Z AUTO 12003KT 10SM BKN070 OVC095 22/17 A2993 RMK AO2 LTG DSNT NE T02180166
KCWC 230135Z AUTO 12007KT 10SM SCT070 BKN095 22/17 A2993 RMK AO2 LTG DSNT N AND NE T02200165
KCWC 230115Z AUTO 12005KT 10SM SCT085 22/16 A2992 RMK AO2 LTG DSNT N T02230161
KCWC 230055Z AUTO 12006KT 10SM BKN085 23/16 A2992 RMK AO2 LTG DSNT N T02300160
KCWC 230035Z AUTO 09004KT 10SM SCT033 BKN085 23/16 A2992 RMK AO2 LTG DSNT N AND SW T02310157
KCWC 230015Z AUTO 12006KT 10SM SCT033 BKN085 24/16 A2993 RMK AO2 LTG DSNT N T02350160
KCWC 222355Z AUTO 12007KT 10SM SCT075 BKN085 BKN120 24/16 A2993 RMK AO2 T02350158 10247 20204
KCWC 222335Z AUTO 12007KT 10SM BKN070 OVC085 24/16 A2994 RMK AO2 T02360156
KCWC 222315Z AUTO 09004KT 10SM OVC060 23/16 A2996 RMK AO2 T02330156
KCWC 222255Z AUTO 13006KT 10SM OVC060 24/15 A2996 RMK AO2 LTG DSNT N T02350154
KCWC 222235Z AUTO 11006KT 10SM OVC050 24/16 A2996 RMK AO2 LTG DSNT NW T02360156
KCWC 222215Z AUTO 12007KT 10SM OVC050 24/15 A2996 RMK AO2 LTG DSNT N T02350153
KCWC 222155Z AUTO 12006KT 10SM SCT043 OVC060 25/16 A2997 RMK AO2 T02470156
KCWC 222135Z AUTO 09005KT 10SM SCT037 BKN043 BKN050 24/16 A2998 RMK AO2 LTG DSNT N T02430155
KCWC 222115Z AUTO 11003KT 10SM OVC037 24/15 A2999 RMK AO2 LTG DSNT N T02350152
KCWC 222055Z AUTO 10005KT 10SM OVC037 23/15 A3000 RMK AO2 LTG DSNT N T02310150
KCWC 222035Z AUTO 06004KT 10SM OVC037 23/15 A3001 RMK AO2 T02310151
KCWC 222015Z AUTO 13003KT 10SM OVC035 23/15 A3002 RMK AO2 T02310148
KCWC 221955Z AUTO 13005KT 10SM OVC035 23/15 A3003 RMK AO2 T02260146
KCWC 221935Z AUTO 08004KT 10SM OVC033 23/15 A3003 RMK AO2 T02280148
KCWC 221915Z AUTO 06005KT 10SM SCT029 OVC035 23/15 A3004 RMK AO2 T02280149
KCWC 221855Z AUTO 06005KT 10SM BKN030 BKN036 22/15 A3004 RMK AO2 T02220145
KCWC 221835Z AUTO 06005KT 10SM SCT027 SCT033 22/15 A3004 RMK AO2 T02210147
KCWC 221815Z AUTO 07005KT 10SM OVC027 21/15 A3006 RMK AO2 T02110146
KCWC 221755Z AUTO 01005KT 10SM OVC027 21/14 A3007 RMK AO2 T02050143 10216 20142
KCWC 221735Z AUTO 03005G17KT 10SM BKN027 BKN033 21/15 A3008 RMK AO2 T02120148
KCWC 221720Z AUTO 03013G18KT 10SM BKN027 21/15 A3008 RMK AO2 T02080148
KCWC 221655Z AUTO 08008KT 10SM BKN025 BKN035 22/14 A3008 RMK AO2 T02150143
KCWC 221635Z AUTO 08004KT 10SM BKN025 OVC035 21/14 A3010 RMK AO2 T02070141
KCWC 221615Z AUTO 00000KT 10SM BKN025 OVC035 20/14 A3012 RMK AO2 T01960137
KCWC 221555Z AUTO 00000KT 10SM SCT025 BKN033 OVC065 19/14 A3013 RMK AO2 T01940136
KCWC 221535Z AUTO 34005KT 10SM SCT033 BKN050 OVC085 19/13 A3013 RMK AO2 T01930134
KCWC 221515Z AUTO 32003KT 10SM OVC050 19/14 A3014 RMK AO2 T01910135
KCWC 221455Z AUTO 16003KT 10SM BKN040 OVC050 19/14 A3014 RMK AO2 T01860135
KCWC 221435Z AUTO 20004KT 10SM OVC038 19/13 A3014 RMK AO2 T01850131
KCWC 221415Z AUTO 15005KT 10SM BKN036 OVC046 19/13 A3014 RMK AO2 T01860134
KCWC 221355Z AUTO 17008KT 10SM BKN036 BKN044 BKN085 18/14 A3013 RMK AO2 T01820135
KCWC 221335Z AUTO 16006KT 10SM OVC036 17/14 A3012 RMK AO2 T01740135
KCWC 221315Z AUTO 00000KT 10SM OVC034 17/14 A3012 RMK AO2 T01700137
KCWC 221255Z AUTO 00000KT 10SM OVC032 16/13 A3012 RMK AO2 T01610132
KCWC 221235Z AUTO 00000KT 10SM OVC032 16/13 A3011 RMK AO2 T01560129
KCWC 221215Z AUTO 00000KT 10SM OVC032 15/13 A3011 RMK AO2 T01480127
KCWC 221155Z AUTO 00000KT 10SM OVC032 14/12 A3010 RMK AO2 T01420122 10159 20137
KCWC 221135Z AUTO 00000KT 10SM SCT032 14/12 A3010 RMK AO2 T01390120
KCWC 221115Z AUTO 00000KT 10SM SCT034 14/12 A3010 RMK AO2 LTG DSNT NW T01430121
KCWC 221055Z AUTO 00000KT 10SM OVC036 15/12 A3011 RMK AO2 T01460118
KCWC 221035Z AUTO 00000KT 10SM BKN040 14/12 A3012 RMK AO2 T01430117
KCWC 221015Z AUTO 10006KT 10SM CLR 14/12 A3011 RMK AO2 T01390115
KCWC 220955Z AUTO 11010KT 10SM SCT085 14/12 A3011 RMK AO2 T01400116
KCWC 220935Z AUTO 09003KT 10SM CLR 14/12 A3013 RMK AO2 T01410117
KCWC 220915Z AUTO 13004KT 10SM SCT075 14/12 A3013 RMK AO2 T01420117
KCWC 220855Z AUTO 12008KT 10SM OVC075 15/12 A3013 RMK AO2 T01500121
KCWC 220835Z AUTO 08003KT 10SM BKN075 15/12 A3014 RMK AO2 T01450121
KCWC 220815Z AUTO 00000KT 10SM SCT075 15/12 A3015 RMK AO2 T01450119
KCWC 220755Z AUTO 11007KT 10SM CLR 14/12 A3016 RMK AO2 T01440120
KCWC 220735Z AUTO 10008KT 10SM CLR 15/12 A3015 RMK AO2 T01470120
KCWC 220715Z AUTO 09003KT 10SM CLR 15/12 A3015 RMK AO2 T01510120
KCWC 220655Z AUTO 09006KT 10SM CLR 15/12 A3014 RMK AO2 T01510120
KCWC 220635Z AUTO 08004KT 10SM CLR 15/12 A3014 RMK AO2 T01510120
KCWC 220615Z AUTO 09005KT 10SM CLR 16/12 A3014 RMK AO2 T01550120
KCWC 220555Z AUTO 09004KT 10SM CLR 16/12 A3014 RMK AO2 T01600119 10230 20160 402590122
KCWC 220535Z AUTO 10003KT 10SM CLR 16/12 A3014 RMK AO2 T01630120
KCWC 220515Z AUTO 09005KT 10SM CLR 17/12 A3014 RMK AO2 T01650120
KCWC 220455Z AUTO 08004KT 10SM CLR 17/13 A3014 RMK AO2 T01660125
KCWC 220435Z AUTO 09004KT 10SM CLR 17/13 A3015 RMK AO2 T01680128
KCWC 220415Z AUTO 09004KT 10SM CLR 17/13 A3016 RMK AO2 T01720130
KCWC 220355Z AUTO 10003KT 10SM CLR 18/13 A3016 RMK AO2 T01760130
KCWC 220335Z AUTO 16005KT 10SM CLR 18/13 A3016 RMK AO2 T01820130
KCWC 220315Z AUTO 10006KT 10SM CLR 18/14 A3015 RMK AO2 T01820135
KCWC 220255Z AUTO 08005KT 10SM CLR 19/14 A3014 RMK AO2 T01850139
KCWC 220235Z AUTO 08003KT 10SM CLR 19/14 A3013 RMK AO2 T01880138
KCWC 220215Z AUTO 09003KT 10SM CLR 19/13 A3013 RMK AO2 T01940133
KCWC 220155Z AUTO 10004KT 10SM CLR 20/13 A3013 RMK AO2 T02000134
KCWC 220135Z AUTO 09003KT 10SM CLR 21/13 A3012 RMK AO2 T02070131
KCWC 220115Z AUTO 09004KT 10SM CLR 21/13 A3012 RMK AO2 T02120130
KCWC 220055Z AUTO 10005KT 10SM CLR 22/12 A3011 RMK AO2 T02200124
KCWC 220035Z AUTO 10005KT 10SM CLR 22/13 A3011 RMK AO2 T02230126
KCWC 220015Z AUTO 10005KT 10SM CLR 23/12 A3010 RMK AO2 T02270124
KCWC 212355Z AUTO 10005KT 10SM CLR 23/12 A3011 RMK AO2 T02310120 10259 20231
KCWC 212335Z AUTO 09004KT 10SM CLR 24/12 A3012 RMK AO2 T02350118
KCWC 212315Z AUTO 09005KT 10SM CLR 24/12 A3012 RMK AO2 T02380117
KCWC 212255Z AUTO 09005KT 10SM CLR 24/11 A3012 RMK AO2 T02400106
KCWC 212235Z AUTO 11008KT 10SM CLR 24/10 A3013 RMK AO2 T02440104
KCWC 212215Z AUTO 10006KT 10SM CLR 25/10 A3013 RMK AO2 T02460103
KCWC 212155Z AUTO 11007KT 10SM CLR 25/10 A3013 RMK AO2 T02470100
KCWC 212135Z AUTO 11009G15KT 10SM CLR 25/10 A3013 RMK AO2 T02540102
KCWC 212115Z AUTO 11008G17KT 10SM CLR 25/10 A3013 RMK AO2 T02520096
KCWC 212055Z AUTO 09006KT 10SM CLR 26/10 A3014 RMK AO2 T02550098
KCWC 212035Z AUTO 10007KT 10SM CLR 26/10 A3014 RMK AO2 T02570100
KCWC 212015Z AUTO 08009KT 10SM CLR 26/10 A3014 RMK AO2 T02560099
KCWC 211955Z AUTO 08008KT 10SM CLR 26/10 A3013 RMK AO2 T02560098
KCWC 211935Z AUTO 09004G08KT 10SM CLR 26/08 A3014 RMK AO2 T02550084
KCWC 211915Z AUTO 08005KT 10SM CLR 25/09 A3016 RMK AO2 T02490094
KCWC 211855Z AUTO 09005KT 10SM CLR 25/09 A3019 RMK AO2 T02490088
KCWC 211835Z AUTO 14007KT 120V180 10SM CLR 25/10 A3018 RMK AO2 T02450098
KCWC 211815Z AUTO 11007KT 080V170 10SM CLR 25/10 A3019 RMK AO2 T02460100
KCWC 211755Z AUTO 07004KT 10SM CLR 24/09 A3020 RMK AO2 T02390085 10241 20122
KCWC 211735Z AUTO 06007KT 10SM CLR 24/10 A3020 RMK AO2 T02410095
KCWC 211715Z AUTO 12005G15KT 10SM CLR 23/10 A3020 RMK AO2 T02340095


Page loaded:  05:06 UTC  |   10:06 PM Pacific  |   11:06 PM Mountain  |   12:06 AM Central  |   01:06 AM Eastern

 

ADVISORIES

FORECASTS

FORECASTS

OBSERVATIONS

USER TOOLS

ABOUT US